sensor_id;sensor_type;location;lat;lon;timestamp;P1;durP1;ratioP1;P2;durP2;ratioP2
10389;SDS011;5241;47.830;12.972;2022-10-16T00:01:56;4.50;;;1.97;;
10389;SDS011;5241;47.830;12.972;2022-10-16T00:04:22;3.07;;;1.97;;
10389;SDS011;5241;47.830;12.972;2022-10-16T00:06:47;2.50;;;1.87;;
10389;SDS011;5241;47.830;12.972;2022-10-16T00:09:13;2.80;;;2.03;;
10389;SDS011;5241;47.830;12.972;2022-10-16T00:11:39;3.53;;;2.20;;
10389;SDS011;5241;47.830;12.972;2022-10-16T00:14:06;7.63;;;2.57;;
10389;SDS011;5241;47.830;12.972;2022-10-16T00:16:34;3.93;;;2.17;;
10389;SDS011;5241;47.830;12.972;2022-10-16T00:19:00;2.83;;;2.03;;
10389;SDS011;5241;47.830;12.972;2022-10-16T00:21:26;3.93;;;2.20;;
10389;SDS011;5241;47.830;12.972;2022-10-16T00:23:57;3.40;;;2.30;;
10389;SDS011;5241;47.830;12.972;2022-10-16T00:26:29;2.93;;;2.00;;
10389;SDS011;5241;47.830;12.972;2022-10-16T00:28:57;6.33;;;2.17;;
10389;SDS011;5241;47.830;12.972;2022-10-16T00:31:23;3.03;;;2.30;;
10389;SDS011;5241;47.830;12.972;2022-10-16T00:33:49;3.60;;;2.03;;
10389;SDS011;5241;47.830;12.972;2022-10-16T00:36:17;3.20;;;2.10;;
10389;SDS011;5241;47.830;12.972;2022-10-16T00:38:44;3.17;;;1.93;;
10389;SDS011;5241;47.830;12.972;2022-10-16T00:41:11;3.03;;;1.80;;
10389;SDS011;5241;47.830;12.972;2022-10-16T00:43:53;2.37;;;1.90;;
10389;SDS011;5241;47.830;12.972;2022-10-16T00:46:39;3.57;;;2.13;;
10389;SDS011;5241;47.830;12.972;2022-10-16T00:49:14;3.47;;;2.00;;
10389;SDS011;5241;47.830;12.972;2022-10-16T00:51:47;5.77;;;2.40;;
10389;SDS011;5241;47.830;12.972;2022-10-16T00:54:19;2.43;;;1.90;;
10389;SDS011;5241;47.830;12.972;2022-10-16T00:56:57;3.13;;;2.10;;
10389;SDS011;5241;47.830;12.972;2022-10-16T00:59:26;7.53;;;2.50;;
10389;SDS011;5241;47.830;12.972;2022-10-16T01:01:53;5.40;;;1.97;;
10389;SDS011;5241;47.830;12.972;2022-10-16T01:04:20;3.90;;;2.00;;
10389;SDS011;5241;47.830;12.972;2022-10-16T01:20:59;5.30;;;2.20;;
10389;SDS011;5241;47.830;12.972;2022-10-16T01:23:35;2.27;;;2.00;;
10389;SDS011;5241;47.830;12.972;2022-10-16T01:26:29;2.40;;;1.90;;
10389;SDS011;5241;47.830;12.972;2022-10-16T01:31:54;3.83;;;2.07;;
10389;SDS011;5241;47.830;12.972;2022-10-16T01:37:32;3.13;;;2.10;;
10389;SDS011;5241;47.830;12.972;2022-10-16T01:40:05;3.90;;;1.90;;
10389;SDS011;5241;47.830;12.972;2022-10-16T01:42:37;2.40;;;1.90;;
10389;SDS011;5241;47.830;12.972;2022-10-16T01:45:07;3.10;;;2.27;;
10389;SDS011;5241;47.830;12.972;2022-10-16T01:47:36;2.43;;;2.00;;
10389;SDS011;5241;47.830;12.972;2022-10-16T01:50:04;3.77;;;2.30;;
10389;SDS011;5241;47.830;12.972;2022-10-16T01:52:30;3.03;;;2.03;;
10389;SDS011;5241;47.830;12.972;2022-10-16T01:54:59;3.00;;;2.23;;
10389;SDS011;5241;47.830;12.972;2022-10-16T01:57:27;4.50;;;2.07;;
10389;SDS011;5241;47.830;12.972;2022-10-16T01:59:56;4.70;;;2.10;;
10389;SDS011;5241;47.830;12.972;2022-10-16T02:02:26;3.03;;;2.00;;
10389;SDS011;5241;47.830;12.972;2022-10-16T02:04:57;2.67;;;1.77;;
10389;SDS011;5241;47.830;12.972;2022-10-16T02:07:26;2.23;;;1.80;;
10389;SDS011;5241;47.830;12.972;2022-10-16T02:09:52;2.00;;;1.80;;
10389;SDS011;5241;47.830;12.972;2022-10-16T02:14:53;6.93;;;2.10;;
10389;SDS011;5241;47.830;12.972;2022-10-16T02:17:19;2.87;;;1.90;;
10389;SDS011;5241;47.830;12.972;2022-10-16T02:19:46;3.07;;;2.30;;
10389;SDS011;5241;47.830;12.972;2022-10-16T02:22:19;3.93;;;2.07;;
10389;SDS011;5241;47.830;12.972;2022-10-16T02:25:15;3.33;;;2.10;;
10389;SDS011;5241;47.830;12.972;2022-10-16T02:27:46;4.60;;;2.20;;
10389;SDS011;5241;47.830;12.972;2022-10-16T02:32:55;3.00;;;2.20;;
10389;SDS011;5241;47.830;12.972;2022-10-16T02:35:23;3.87;;;2.40;;
10389;SDS011;5241;47.830;12.972;2022-10-16T02:37:50;5.73;;;2.40;;
10389;SDS011;5241;47.830;12.972;2022-10-16T02:40:17;5.80;;;1.97;;
10389;SDS011;5241;47.830;12.972;2022-10-16T02:42:43;2.47;;;2.03;;
10389;SDS011;5241;47.830;12.972;2022-10-16T02:45:09;3.67;;;1.80;;
10389;SDS011;5241;47.830;12.972;2022-10-16T02:47:36;3.40;;;1.90;;
10389;SDS011;5241;47.830;12.972;2022-10-16T02:50:02;3.00;;;1.67;;
10389;SDS011;5241;47.830;12.972;2022-10-16T02:52:28;3.20;;;1.80;;
10389;SDS011;5241;47.830;12.972;2022-10-16T02:54:53;3.20;;;2.17;;
10389;SDS011;5241;47.830;12.972;2022-10-16T02:57:19;3.83;;;2.17;;
10389;SDS011;5241;47.830;12.972;2022-10-16T02:59:44;3.47;;;1.70;;
10389;SDS011;5241;47.830;12.972;2022-10-16T03:02:10;3.77;;;1.97;;
10389;SDS011;5241;47.830;12.972;2022-10-16T03:04:36;2.17;;;1.97;;
10389;SDS011;5241;47.830;12.972;2022-10-16T03:07:02;3.20;;;2.00;;
10389;SDS011;5241;47.830;12.972;2022-10-16T03:09:28;2.00;;;1.77;;
10389;SDS011;5241;47.830;12.972;2022-10-16T03:11:54;4.27;;;2.10;;
10389;SDS011;5241;47.830;12.972;2022-10-16T03:14:19;3.27;;;2.03;;
10389;SDS011;5241;47.830;12.972;2022-10-16T03:16:45;2.97;;;2.10;;
10389;SDS011;5241;47.830;12.972;2022-10-16T03:19:10;4.47;;;2.00;;
10389;SDS011;5241;47.830;12.972;2022-10-16T03:21:36;2.40;;;1.93;;
10389;SDS011;5241;47.830;12.972;2022-10-16T03:24:01;2.23;;;1.97;;
10389;SDS011;5241;47.830;12.972;2022-10-16T03:26:27;2.70;;;1.97;;
10389;SDS011;5241;47.830;12.972;2022-10-16T03:28:53;2.20;;;2.00;;
10389;SDS011;5241;47.830;12.972;2022-10-16T03:31:18;3.67;;;1.80;;
10389;SDS011;5241;47.830;12.972;2022-10-16T03:33:44;3.10;;;1.80;;
10389;SDS011;5241;47.830;12.972;2022-10-16T03:36:09;3.93;;;2.07;;
10389;SDS011;5241;47.830;12.972;2022-10-16T03:38:35;4.53;;;1.90;;
10389;SDS011;5241;47.830;12.972;2022-10-16T03:41:00;5.87;;;2.03;;
10389;SDS011;5241;47.830;12.972;2022-10-16T03:43:26;1.87;;;1.63;;
10389;SDS011;5241;47.830;12.972;2022-10-16T03:45:52;5.07;;;2.00;;
10389;SDS011;5241;47.830;12.972;2022-10-16T03:48:18;2.83;;;2.03;;
10389;SDS011;5241;47.830;12.972;2022-10-16T03:50:44;3.40;;;1.90;;
10389;SDS011;5241;47.830;12.972;2022-10-16T03:53:12;2.17;;;1.90;;
10389;SDS011;5241;47.830;12.972;2022-10-16T03:55:40;2.47;;;1.70;;
10389;SDS011;5241;47.830;12.972;2022-10-16T03:58:07;4.43;;;1.87;;
10389;SDS011;5241;47.830;12.972;2022-10-16T04:00:32;2.53;;;2.20;;
10389;SDS011;5241;47.830;12.972;2022-10-16T04:02:59;2.73;;;1.90;;
10389;SDS011;5241;47.830;12.972;2022-10-16T04:05:25;6.03;;;2.10;;
10389;SDS011;5241;47.830;12.972;2022-10-16T04:07:50;3.57;;;1.97;;
10389;SDS011;5241;47.830;12.972;2022-10-16T04:10:16;2.23;;;1.90;;
10389;SDS011;5241;47.830;12.972;2022-10-16T04:12:42;2.23;;;1.77;;
10389;SDS011;5241;47.830;12.972;2022-10-16T04:15:07;6.03;;;2.30;;
10389;SDS011;5241;47.830;12.972;2022-10-16T04:17:33;4.63;;;2.27;;
10389;SDS011;5241;47.830;12.972;2022-10-16T04:19:59;3.83;;;2.00;;
10389;SDS011;5241;47.830;12.972;2022-10-16T04:22:24;3.40;;;1.63;;
10389;SDS011;5241;47.830;12.972;2022-10-16T04:24:50;4.30;;;2.10;;
10389;SDS011;5241;47.830;12.972;2022-10-16T04:27:15;3.80;;;2.00;;
10389;SDS011;5241;47.830;12.972;2022-10-16T04:29:41;4.67;;;2.10;;
10389;SDS011;5241;47.830;12.972;2022-10-16T04:32:07;2.93;;;2.00;;
10389;SDS011;5241;47.830;12.972;2022-10-16T04:34:34;4.40;;;2.20;;
10389;SDS011;5241;47.830;12.972;2022-10-16T04:37:00;3.13;;;1.93;;
10389;SDS011;5241;47.830;12.972;2022-10-16T04:39:25;3.63;;;2.03;;
10389;SDS011;5241;47.830;12.972;2022-10-16T04:41:51;3.07;;;2.00;;
10389;SDS011;5241;47.830;12.972;2022-10-16T04:44:16;6.37;;;2.30;;
10389;SDS011;5241;47.830;12.972;2022-10-16T04:46:42;5.10;;;1.70;;
10389;SDS011;5241;47.830;12.972;2022-10-16T04:49:09;2.20;;;2.00;;
10389;SDS011;5241;47.830;12.972;2022-10-16T04:51:34;4.77;;;2.00;;
10389;SDS011;5241;47.830;12.972;2022-10-16T04:54:00;2.17;;;1.80;;
10389;SDS011;5241;47.830;12.972;2022-10-16T04:56:26;1.93;;;1.77;;
10389;SDS011;5241;47.830;12.972;2022-10-16T04:58:52;2.17;;;1.70;;
10389;SDS011;5241;47.830;12.972;2022-10-16T05:01:17;2.23;;;1.90;;
10389;SDS011;5241;47.830;12.972;2022-10-16T05:03:43;4.17;;;1.83;;
10389;SDS011;5241;47.830;12.972;2022-10-16T05:06:08;2.00;;;1.80;;
10389;SDS011;5241;47.830;12.972;2022-10-16T05:08:34;3.03;;;1.83;;
10389;SDS011;5241;47.830;12.972;2022-10-16T05:11:00;8.80;;;2.30;;
10389;SDS011;5241;47.830;12.972;2022-10-16T05:13:26;4.33;;;2.10;;
10389;SDS011;5241;47.830;12.972;2022-10-16T05:15:52;2.70;;;1.83;;
10389;SDS011;5241;47.830;12.972;2022-10-16T05:18:17;7.60;;;2.10;;
10389;SDS011;5241;47.830;12.972;2022-10-16T05:20:43;3.70;;;2.07;;
10389;SDS011;5241;47.830;12.972;2022-10-16T05:23:08;2.53;;;1.87;;
10389;SDS011;5241;47.830;12.972;2022-10-16T05:25:35;3.10;;;1.93;;
10389;SDS011;5241;47.830;12.972;2022-10-16T05:28:01;3.30;;;1.90;;
10389;SDS011;5241;47.830;12.972;2022-10-16T05:30:27;3.83;;;2.20;;
10389;SDS011;5241;47.830;12.972;2022-10-16T05:32:53;3.30;;;1.80;;
10389;SDS011;5241;47.830;12.972;2022-10-16T05:35:19;4.53;;;2.20;;
10389;SDS011;5241;47.830;12.972;2022-10-16T05:37:45;2.33;;;1.90;;
10389;SDS011;5241;47.830;12.972;2022-10-16T05:40:11;3.87;;;2.00;;
10389;SDS011;5241;47.830;12.972;2022-10-16T05:42:37;2.27;;;2.00;;
10389;SDS011;5241;47.830;12.972;2022-10-16T05:45:04;2.43;;;1.90;;
10389;SDS011;5241;47.830;12.972;2022-10-16T05:47:31;2.80;;;1.77;;
10389;SDS011;5241;47.830;12.972;2022-10-16T05:49:56;4.47;;;2.07;;
10389;SDS011;5241;47.830;12.972;2022-10-16T05:52:22;2.43;;;2.03;;
10389;SDS011;5241;47.830;12.972;2022-10-16T05:54:47;2.23;;;1.90;;
10389;SDS011;5241;47.830;12.972;2022-10-16T05:57:13;2.03;;;1.80;;
10389;SDS011;5241;47.830;12.972;2022-10-16T05:59:39;6.20;;;2.20;;
10389;SDS011;5241;47.830;12.972;2022-10-16T06:02:05;2.20;;;1.90;;
10389;SDS011;5241;47.830;12.972;2022-10-16T06:04:30;5.13;;;2.17;;
10389;SDS011;5241;47.830;12.972;2022-10-16T06:06:58;6.63;;;2.40;;
10389;SDS011;5241;47.830;12.972;2022-10-16T06:09:25;3.13;;;2.03;;
10389;SDS011;5241;47.830;12.972;2022-10-16T06:11:51;2.10;;;1.90;;
10389;SDS011;5241;47.830;12.972;2022-10-16T06:14:16;2.70;;;2.07;;
10389;SDS011;5241;47.830;12.972;2022-10-16T06:16:42;4.13;;;2.17;;
10389;SDS011;5241;47.830;12.972;2022-10-16T06:19:07;2.60;;;2.07;;
10389;SDS011;5241;47.830;12.972;2022-10-16T06:21:34;2.27;;;1.93;;
10389;SDS011;5241;47.830;12.972;2022-10-16T06:24:00;2.00;;;1.77;;
10389;SDS011;5241;47.830;12.972;2022-10-16T06:26:26;3.80;;;1.90;;
10389;SDS011;5241;47.830;12.972;2022-10-16T06:28:54;4.27;;;1.70;;
10389;SDS011;5241;47.830;12.972;2022-10-16T06:31:20;3.50;;;1.70;;
10389;SDS011;5241;47.830;12.972;2022-10-16T06:33:49;5.67;;;2.03;;
10389;SDS011;5241;47.830;12.972;2022-10-16T06:36:16;4.93;;;2.10;;
10389;SDS011;5241;47.830;12.972;2022-10-16T06:38:42;2.13;;;1.57;;
10389;SDS011;5241;47.830;12.972;2022-10-16T06:41:12;2.73;;;2.07;;
10389;SDS011;5241;47.830;12.972;2022-10-16T06:43:40;3.10;;;1.70;;
10389;SDS011;5241;47.830;12.972;2022-10-16T06:46:06;2.13;;;1.70;;
10389;SDS011;5241;47.830;12.972;2022-10-16T06:48:34;6.60;;;1.90;;
10389;SDS011;5241;47.830;12.972;2022-10-16T06:53:35;2.80;;;1.70;;
10389;SDS011;5241;47.830;12.972;2022-10-16T06:56:35;4.17;;;1.80;;
10389;SDS011;5241;47.830;12.972;2022-10-16T06:58:55;4.00;;;2.07;;
10389;SDS011;5241;47.830;12.972;2022-10-16T07:01:22;2.20;;;1.77;;
10389;SDS011;5241;47.830;12.972;2022-10-16T07:03:49;2.67;;;1.90;;
10389;SDS011;5241;47.830;12.972;2022-10-16T07:06:16;2.70;;;1.60;;
10389;SDS011;5241;47.830;12.972;2022-10-16T07:08:44;3.07;;;1.87;;
10389;SDS011;5241;47.830;12.972;2022-10-16T07:11:11;2.93;;;2.00;;
10389;SDS011;5241;47.830;12.972;2022-10-16T07:13:39;5.70;;;1.90;;
10389;SDS011;5241;47.830;12.972;2022-10-16T07:16:13;1.80;;;1.60;;
10389;SDS011;5241;47.830;12.972;2022-10-16T07:18:40;1.80;;;1.63;;
10389;SDS011;5241;47.830;12.972;2022-10-16T07:21:08;1.70;;;1.40;;
10389;SDS011;5241;47.830;12.972;2022-10-16T07:23:36;3.57;;;1.70;;
10389;SDS011;5241;47.830;12.972;2022-10-16T07:26:02;2.50;;;1.70;;
10389;SDS011;5241;47.830;12.972;2022-10-16T07:28:28;2.67;;;1.43;;
10389;SDS011;5241;47.830;12.972;2022-10-16T07:30:53;3.47;;;1.57;;
10389;SDS011;5241;47.830;12.972;2022-10-16T07:33:19;2.10;;;1.70;;
10389;SDS011;5241;47.830;12.972;2022-10-16T07:35:52;2.80;;;1.80;;
10389;SDS011;5241;47.830;12.972;2022-10-16T07:38:19;2.97;;;1.90;;
10389;SDS011;5241;47.830;12.972;2022-10-16T07:40:45;2.43;;;1.83;;
10389;SDS011;5241;47.830;12.972;2022-10-16T07:43:10;3.10;;;1.70;;
10389;SDS011;5241;47.830;12.972;2022-10-16T07:45:36;4.80;;;1.97;;
10389;SDS011;5241;47.830;12.972;2022-10-16T07:48:03;2.03;;;1.57;;
10389;SDS011;5241;47.830;12.972;2022-10-16T07:50:28;3.27;;;1.60;;
10389;SDS011;5241;47.830;12.972;2022-10-16T07:52:54;2.00;;;1.77;;
10389;SDS011;5241;47.830;12.972;2022-10-16T07:55:20;1.87;;;1.70;;
10389;SDS011;5241;47.830;12.972;2022-10-16T07:57:45;2.07;;;1.40;;
10389;SDS011;5241;47.830;12.972;2022-10-16T08:00:11;4.87;;;2.00;;
10389;SDS011;5241;47.830;12.972;2022-10-16T08:02:39;1.60;;;1.30;;
10389;SDS011;5241;47.830;12.972;2022-10-16T08:05:05;4.80;;;1.47;;
10389;SDS011;5241;47.830;12.972;2022-10-16T08:07:32;2.87;;;1.50;;
10389;SDS011;5241;47.830;12.972;2022-10-16T08:09:57;4.03;;;1.43;;
10389;SDS011;5241;47.830;12.972;2022-10-16T08:12:23;2.00;;;1.70;;
10389;SDS011;5241;47.830;12.972;2022-10-16T08:14:50;1.20;;;1.10;;
10389;SDS011;5241;47.830;12.972;2022-10-16T08:17:16;3.70;;;1.50;;
10389;SDS011;5241;47.830;12.972;2022-10-16T08:19:45;2.03;;;1.40;;
10389;SDS011;5241;47.830;12.972;2022-10-16T08:22:12;2.20;;;1.50;;
10389;SDS011;5241;47.830;12.972;2022-10-16T08:24:38;1.83;;;1.20;;
10389;SDS011;5241;47.830;12.972;2022-10-16T08:27:04;2.17;;;1.10;;
10389;SDS011;5241;47.830;12.972;2022-10-16T08:29:29;2.23;;;1.20;;
10389;SDS011;5241;47.830;12.972;2022-10-16T08:31:55;2.03;;;1.23;;
10389;SDS011;5241;47.830;12.972;2022-10-16T08:34:20;2.30;;;1.27;;
10389;SDS011;5241;47.830;12.972;2022-10-16T08:36:46;2.73;;;1.50;;
10389;SDS011;5241;47.830;12.972;2022-10-16T08:39:11;1.20;;;1.10;;
10389;SDS011;5241;47.830;12.972;2022-10-16T08:47:31;2.07;;;1.30;;
10389;SDS011;5241;47.830;12.972;2022-10-16T08:50:09;1.40;;;1.30;;
10389;SDS011;5241;47.830;12.972;2022-10-16T08:52:38;2.67;;;1.60;;
10389;SDS011;5241;47.830;12.972;2022-10-16T08:55:08;1.70;;;1.50;;
10389;SDS011;5241;47.830;12.972;2022-10-16T08:57:46;5.03;;;1.47;;
10389;SDS011;5241;47.830;12.972;2022-10-16T09:00:12;2.47;;;1.27;;
10389;SDS011;5241;47.830;12.972;2022-10-16T09:02:40;2.23;;;1.17;;
10389;SDS011;5241;47.830;12.972;2022-10-16T09:05:42;1.27;;;1.17;;
10389;SDS011;5241;47.830;12.972;2022-10-16T09:08:17;1.87;;;1.47;;
10389;SDS011;5241;47.830;12.972;2022-10-16T09:10:51;1.80;;;1.43;;
10389;SDS011;5241;47.830;12.972;2022-10-16T09:21:23;1.20;;;1.10;;
10389;SDS011;5241;47.830;12.972;2022-10-16T09:23:53;1.40;;;1.30;;
10389;SDS011;5241;47.830;12.972;2022-10-16T09:26:22;1.43;;;1.33;;
10389;SDS011;5241;47.830;12.972;2022-10-16T09:28:48;2.00;;;1.60;;
10389;SDS011;5241;47.830;12.972;2022-10-16T09:31:15;1.80;;;1.30;;
10389;SDS011;5241;47.830;12.972;2022-10-16T09:33:43;1.50;;;1.40;;
10389;SDS011;5241;47.830;12.972;2022-10-16T09:36:13;1.40;;;1.30;;
10389;SDS011;5241;47.830;12.972;2022-10-16T09:38:39;2.60;;;1.27;;
10389;SDS011;5241;47.830;12.972;2022-10-16T09:41:18;1.30;;;1.20;;
10389;SDS011;5241;47.830;12.972;2022-10-16T09:46:24;1.77;;;1.10;;
10389;SDS011;5241;47.830;12.972;2022-10-16T09:48:56;1.30;;;1.20;;
10389;SDS011;5241;47.830;12.972;2022-10-16T09:51:27;2.40;;;1.20;;
10389;SDS011;5241;47.830;12.972;2022-10-16T09:54:01;2.97;;;1.40;;
10389;SDS011;5241;47.830;12.972;2022-10-16T09:56:34;2.73;;;1.40;;
10389;SDS011;5241;47.830;12.972;2022-10-16T09:59:45;1.30;;;1.20;;
10389;SDS011;5241;47.830;12.972;2022-10-16T10:01:56;2.13;;;1.23;;
10389;SDS011;5241;47.830;12.972;2022-10-16T10:04:36;1.27;;;1.13;;
10389;SDS011;5241;47.830;12.972;2022-10-16T10:07:16;3.10;;;1.30;;
10389;SDS011;5241;47.830;12.972;2022-10-16T10:09:44;2.50;;;1.40;;
10389;SDS011;5241;47.830;12.972;2022-10-16T10:12:27;3.73;;;1.20;;
10389;SDS011;5241;47.830;12.972;2022-10-16T10:14:55;2.47;;;1.20;;
10389;SDS011;5241;47.830;12.972;2022-10-16T10:17:23;1.57;;;1.37;;
10389;SDS011;5241;47.830;12.972;2022-10-16T10:19:51;1.43;;;1.10;;
10389;SDS011;5241;47.830;12.972;2022-10-16T10:41:57;4.23;;;1.20;;
10389;SDS011;5241;47.830;12.972;2022-10-16T10:50:25;1.60;;;1.20;;
10389;SDS011;5241;47.830;12.972;2022-10-16T10:55:40;1.60;;;1.27;;
10389;SDS011;5241;47.830;12.972;2022-10-16T11:07:21;3.87;;;1.40;;
10389;SDS011;5241;47.830;12.972;2022-10-16T11:09:55;1.20;;;1.03;;
10389;SDS011;5241;47.830;12.972;2022-10-16T11:12:28;1.40;;;1.30;;
10389;SDS011;5241;47.830;12.972;2022-10-16T11:15:03;1.37;;;1.27;;
10389;SDS011;5241;47.830;12.972;2022-10-16T11:17:38;1.40;;;1.30;;
10389;SDS011;5241;47.830;12.972;2022-10-16T11:20:18;1.60;;;1.33;;
10389;SDS011;5241;47.830;12.972;2022-10-16T11:25:23;2.53;;;1.30;;
10389;SDS011;5241;47.830;12.972;2022-10-16T11:30:23;2.83;;;2.57;;
10389;SDS011;5241;47.830;12.972;2022-10-16T11:38:24;4.93;;;4.53;;
10389;SDS011;5241;47.830;12.972;2022-10-16T11:40:51;4.73;;;1.90;;
10389;SDS011;5241;47.830;12.972;2022-10-16T11:43:38;1.30;;;1.20;;
10389;SDS011;5241;47.830;12.972;2022-10-16T11:46:09;1.83;;;1.20;;
10389;SDS011;5241;47.830;12.972;2022-10-16T11:48:52;1.73;;;1.30;;
10389;SDS011;5241;47.830;12.972;2022-10-16T11:54:45;1.37;;;1.10;;
10389;SDS011;5241;47.830;12.972;2022-10-16T11:57:17;2.67;;;1.47;;
10389;SDS011;5241;47.830;12.972;2022-10-16T11:59:48;2.00;;;1.17;;
10389;SDS011;5241;47.830;12.972;2022-10-16T12:02:35;1.27;;;1.17;;
10389;SDS011;5241;47.830;12.972;2022-10-16T12:05:05;2.67;;;1.30;;
10389;SDS011;5241;47.830;12.972;2022-10-16T12:08:02;1.23;;;1.10;;
10389;SDS011;5241;47.830;12.972;2022-10-16T12:10:31;1.30;;;1.20;;
10389;SDS011;5241;47.830;12.972;2022-10-16T12:12:59;2.47;;;1.27;;
10389;SDS011;5241;47.830;12.972;2022-10-16T12:15:29;1.20;;;1.10;;
10389;SDS011;5241;47.830;12.972;2022-10-16T12:17:56;1.37;;;1.23;;
10389;SDS011;5241;47.830;12.972;2022-10-16T12:20:29;1.20;;;1.10;;
10389;SDS011;5241;47.830;12.972;2022-10-16T12:23:02;1.30;;;1.20;;
10389;SDS011;5241;47.830;12.972;2022-10-16T12:25:32;1.30;;;1.20;;
10389;SDS011;5241;47.830;12.972;2022-10-16T12:30:31;1.80;;;1.70;;
10389;SDS011;5241;47.830;12.972;2022-10-16T12:33:01;1.20;;;1.10;;
10389;SDS011;5241;47.830;12.972;2022-10-16T12:35:33;1.63;;;1.20;;
10389;SDS011;5241;47.830;12.972;2022-10-16T12:38:12;1.50;;;1.40;;
10389;SDS011;5241;47.830;12.972;2022-10-16T12:40:42;1.40;;;1.30;;
10389;SDS011;5241;47.830;12.972;2022-10-16T12:43:26;1.40;;;1.30;;
10389;SDS011;5241;47.830;12.972;2022-10-16T12:46:01;1.60;;;1.50;;
10389;SDS011;5241;47.830;12.972;2022-10-16T12:48:33;1.60;;;1.50;;
10389;SDS011;5241;47.830;12.972;2022-10-16T12:51:09;1.57;;;1.47;;
10389;SDS011;5241;47.830;12.972;2022-10-16T12:53:36;1.10;;;1.10;;
10389;SDS011;5241;47.830;12.972;2022-10-16T12:56:13;1.30;;;1.10;;
10389;SDS011;5241;47.830;12.972;2022-10-16T13:01:34;4.28;;;1.10;;
10389;SDS011;5241;47.830;12.972;2022-10-16T13:06:56;1.30;;;1.20;;
10389;SDS011;5241;47.830;12.972;2022-10-16T13:14:41;2.35;;;1.23;;
10389;SDS011;5241;47.830;12.972;2022-10-16T13:23:13;2.63;;;1.27;;
10389;SDS011;5241;47.830;12.972;2022-10-16T13:28:19;2.50;;;1.30;;
10389;SDS011;5241;47.830;12.972;2022-10-16T13:30:53;2.60;;;1.40;;
10389;SDS011;5241;47.830;12.972;2022-10-16T13:36:01;1.47;;;1.20;;
10389;SDS011;5241;47.830;12.972;2022-10-16T13:38:29;1.70;;;1.40;;
10389;SDS011;5241;47.830;12.972;2022-10-16T13:41:03;1.17;;;1.00;;
10389;SDS011;5241;47.830;12.972;2022-10-16T13:43:38;1.73;;;1.20;;
10389;SDS011;5241;47.830;12.972;2022-10-16T13:48:38;1.03;;;0.90;;
10389;SDS011;5241;47.830;12.972;2022-10-16T13:53:33;1.00;;;0.90;;
10389;SDS011;5241;47.830;12.972;2022-10-16T13:56:00;2.13;;;1.23;;
10389;SDS011;5241;47.830;12.972;2022-10-16T13:58:28;1.57;;;1.10;;
10389;SDS011;5241;47.830;12.972;2022-10-16T14:00:54;1.40;;;1.20;;
10389;SDS011;5241;47.830;12.972;2022-10-16T14:03:24;1.73;;;1.00;;
10389;SDS011;5241;47.830;12.972;2022-10-16T14:05:52;0.90;;;0.90;;
10389;SDS011;5241;47.830;12.972;2022-10-16T14:08:20;5.03;;;1.20;;
10389;SDS011;5241;47.830;12.972;2022-10-16T14:10:47;3.23;;;1.00;;
10389;SDS011;5241;47.830;12.972;2022-10-16T14:13:21;1.30;;;1.00;;
10389;SDS011;5241;47.830;12.972;2022-10-16T14:15:55;1.20;;;1.10;;
10389;SDS011;5241;47.830;12.972;2022-10-16T14:18:24;2.83;;;1.30;;
10389;SDS011;5241;47.830;12.972;2022-10-16T14:20:51;1.10;;;1.00;;
10389;SDS011;5241;47.830;12.972;2022-10-16T14:23:21;2.00;;;1.00;;
10389;SDS011;5241;47.830;12.972;2022-10-16T14:28:33;2.40;;;1.27;;
10389;SDS011;5241;47.830;12.972;2022-10-16T14:31:00;2.07;;;1.20;;
10389;SDS011;5241;47.830;12.972;2022-10-16T14:38:38;1.10;;;1.00;;
10389;SDS011;5241;47.830;12.972;2022-10-16T14:41:05;1.80;;;1.10;;
10389;SDS011;5241;47.830;12.972;2022-10-16T14:46:00;4.77;;;1.10;;
10389;SDS011;5241;47.830;12.972;2022-10-16T14:48:28;2.60;;;1.33;;
10389;SDS011;5241;47.830;12.972;2022-10-16T14:50:55;1.53;;;1.00;;
10389;SDS011;5241;47.830;12.972;2022-10-16T14:53:20;1.50;;;0.97;;
10389;SDS011;5241;47.830;12.972;2022-10-16T14:55:46;1.57;;;1.00;;
10389;SDS011;5241;47.830;12.972;2022-10-16T14:58:14;1.03;;;0.93;;
10389;SDS011;5241;47.830;12.972;2022-10-16T15:00:45;1.07;;;0.90;;
10389;SDS011;5241;47.830;12.972;2022-10-16T15:03:11;1.50;;;1.20;;
10389;SDS011;5241;47.830;12.972;2022-10-16T15:05:36;1.40;;;1.07;;
10389;SDS011;5241;47.830;12.972;2022-10-16T15:08:02;1.00;;;0.80;;
10389;SDS011;5241;47.830;12.972;2022-10-16T15:10:29;0.90;;;0.90;;
10389;SDS011;5241;47.830;12.972;2022-10-16T15:12:56;1.10;;;0.90;;
10389;SDS011;5241;47.830;12.972;2022-10-16T15:17:47;2.03;;;0.93;;
10389;SDS011;5241;47.830;12.972;2022-10-16T15:20:14;1.03;;;1.00;;
10389;SDS011;5241;47.830;12.972;2022-10-16T15:22:39;1.63;;;0.90;;
10389;SDS011;5241;47.830;12.972;2022-10-16T15:28:02;1.50;;;0.90;;
10389;SDS011;5241;47.830;12.972;2022-10-16T15:30:29;3.17;;;1.20;;
10389;SDS011;5241;47.830;12.972;2022-10-16T15:32:55;5.43;;;1.23;;
10389;SDS011;5241;47.830;12.972;2022-10-16T15:35:20;3.33;;;1.40;;
10389;SDS011;5241;47.830;12.972;2022-10-16T15:37:46;1.43;;;1.20;;
10389;SDS011;5241;47.830;12.972;2022-10-16T15:40:13;2.97;;;1.20;;
10389;SDS011;5241;47.830;12.972;2022-10-16T15:42:39;1.57;;;1.43;;
10389;SDS011;5241;47.830;12.972;2022-10-16T15:45:04;1.77;;;1.30;;
10389;SDS011;5241;47.830;12.972;2022-10-16T15:47:31;4.67;;;1.70;;
10389;SDS011;5241;47.830;12.972;2022-10-16T15:49:57;2.90;;;1.57;;
10389;SDS011;5241;47.830;12.972;2022-10-16T15:52:22;2.40;;;1.37;;
10389;SDS011;5241;47.830;12.972;2022-10-16T15:54:48;2.90;;;1.30;;
10389;SDS011;5241;47.830;12.972;2022-10-16T15:57:13;3.03;;;1.33;;
10389;SDS011;5241;47.830;12.972;2022-10-16T15:59:39;4.60;;;1.80;;
10389;SDS011;5241;47.830;12.972;2022-10-16T16:02:05;2.27;;;1.50;;
10389;SDS011;5241;47.830;12.972;2022-10-16T16:04:30;2.17;;;1.30;;
10389;SDS011;5241;47.830;12.972;2022-10-16T16:06:56;1.73;;;1.47;;
10389;SDS011;5241;47.830;12.972;2022-10-16T16:09:22;1.93;;;1.50;;
10389;SDS011;5241;47.830;12.972;2022-10-16T16:11:48;2.53;;;1.67;;
10389;SDS011;5241;47.830;12.972;2022-10-16T16:14:14;2.50;;;1.57;;
10389;SDS011;5241;47.830;12.972;2022-10-16T16:16:40;5.10;;;1.67;;
10389;SDS011;5241;47.830;12.972;2022-10-16T16:19:06;6.40;;;1.80;;
10389;SDS011;5241;47.830;12.972;2022-10-16T16:21:33;2.67;;;1.70;;
10389;SDS011;5241;47.830;12.972;2022-10-16T16:23:59;2.63;;;1.67;;
10389;SDS011;5241;47.830;12.972;2022-10-16T16:26:26;2.90;;;1.83;;
10389;SDS011;5241;47.830;12.972;2022-10-16T16:28:53;2.90;;;1.90;;
10389;SDS011;5241;47.830;12.972;2022-10-16T16:31:19;2.40;;;1.67;;
10389;SDS011;5241;47.830;12.972;2022-10-16T16:33:48;2.33;;;1.87;;
10389;SDS011;5241;47.830;12.972;2022-10-16T16:36:16;3.10;;;1.60;;
10389;SDS011;5241;47.830;12.972;2022-10-16T16:38:43;2.70;;;1.90;;
10389;SDS011;5241;47.830;12.972;2022-10-16T16:41:13;3.83;;;2.33;;
10389;SDS011;5241;47.830;12.972;2022-10-16T16:43:42;4.53;;;1.90;;
10389;SDS011;5241;47.830;12.972;2022-10-16T16:46:09;3.67;;;2.20;;
10389;SDS011;5241;47.830;12.972;2022-10-16T16:48:35;2.60;;;1.80;;
10389;SDS011;5241;47.830;12.972;2022-10-16T16:51:05;3.33;;;2.10;;
10389;SDS011;5241;47.830;12.972;2022-10-16T16:53:40;6.80;;;1.87;;
10389;SDS011;5241;47.830;12.972;2022-10-16T16:56:09;2.57;;;2.00;;
10389;SDS011;5241;47.830;12.972;2022-10-16T16:58:35;4.40;;;2.97;;
10389;SDS011;5241;47.830;12.972;2022-10-16T17:01:01;7.60;;;4.70;;
10389;SDS011;5241;47.830;12.972;2022-10-16T17:03:27;6.73;;;4.87;;
10389;SDS011;5241;47.830;12.972;2022-10-16T17:08:27;3.53;;;2.80;;
10389;SDS011;5241;47.830;12.972;2022-10-16T17:10:53;4.57;;;2.50;;
10389;SDS011;5241;47.830;12.972;2022-10-16T17:13:23;6.43;;;4.17;;
10389;SDS011;5241;47.830;12.972;2022-10-16T17:15:50;8.10;;;3.63;;
10389;SDS011;5241;47.830;12.972;2022-10-16T17:18:17;6.67;;;3.10;;
10389;SDS011;5241;47.830;12.972;2022-10-16T17:20:43;5.03;;;3.80;;